PWSweather.com
Personal Weather Stations
Station Observations
WISCHPK61
Green Bay Schmitt Park, Green Bay, WI 54311

Green Bay Schmitt ParkGreen Bay, WI 54311

Lat: 44.514277, Lon: -87.935067

Elevation: 735

Station Type: Acu Rite Pro Weather Center model 02032C

http://greenbayweathercam.com

High Low Average
Temperature 59.9°F15.5°C 25.3°F-3.7°C 41.3°F5.2°C
Dew Point 59.6°F15.3°C 25.1°F-3.8°C 40.1°F4.5°C
Winds 1.2 mph 1.9 kmh Calm Calm Calm SWCalm SW
Wind Gusts 3.5 mph5.6 kmh -- --
Humidity 99% 58% 96%
Pressure 29.27 in991.2 mb 29.12 in986.1 mb -
Precipitation 0.00 in0.0 mm - -
Hour Temp Dew Point Humidity Winds Wind Gusts Pressure Precip Precip Rate Daily Precip Total
12:00 AM 29.3°F-1.5°C 29.1°F-1.6°C 99% Calm Calm -- 29.11 in985.8 mb - 0.00 in0.0 mm 0.00 in0.0 mm
01:00 AM 28.4°F-2.0°C 28.2°F-2.1°C 99% Calm Calm -- 29.12 in986.1 mb - 0.00 in0.0 mm 0.00 in0.0 mm
02:00 AM 27.3°F-2.6°C 27.1°F-2.7°C 99% Calm Calm -- 29.12 in986.1 mb - 0.00 in0.0 mm 0.00 in0.0 mm
03:00 AM 26.8°F-2.9°C 26.6°F-3.0°C 99% Calm Calm -- 29.12 in986.1 mb - 0.00 in0.0 mm 0.00 in0.0 mm
04:00 AM 27.1°F-2.7°C 26.9°F-2.8°C 99% Calm Calm -- 29.12 in986.1 mb - 0.00 in0.0 mm 0.00 in0.0 mm
05:00 AM 27.0°F-2.8°C 26.8°F-2.9°C 99% Calm Calm -- 29.14 in986.8 mb - 0.00 in0.0 mm 0.00 in0.0 mm
06:00 AM 25.9°F-3.4°C 25.7°F-3.5°C 99% Calm Calm -- 29.18 in988.1 mb - 0.00 in0.0 mm 0.00 in0.0 mm
07:00 AM 25.3°F-3.7°C 25.1°F-3.8°C 99% Calm Calm -- 29.21 in989.2 mb - 0.00 in0.0 mm 0.00 in0.0 mm
08:00 AM 29.0°F-1.7°C 28.7°F-1.8°C 99% Calm Calm -- 29.23 in989.8 mb - 0.00 in0.0 mm 0.00 in0.0 mm
09:00 AM 38.8°F3.8°C 25.3°F-3.7°C 58% Calm Calm -- 29.23 in989.8 mb - 0.00 in0.0 mm 0.00 in0.0 mm
10:00 AM 45.7°F7.6°C 45.4°F7.4°C 99% Calm Calm -- 29.25 in990.5 mb - 0.00 in0.0 mm 0.00 in0.0 mm
11:00 AM 48.9°F9.4°C 48.7°F9.3°C 99% Calm Calm -- 29.26 in990.9 mb - 0.00 in0.0 mm 0.00 in0.0 mm
12:00 PM 56.7°F13.7°C 56.4°F13.6°C 99% 1.2 mph N1.9 kmh N 3.5 mph5.6 kmh 29.27 in991.2 mb - 0.00 in0.0 mm 0.00 in0.0 mm
01:00 PM 59.8°F15.4°C 59.5°F15.3°C 99% Calm Calm -- 29.27 in991.2 mb - 0.00 in0.0 mm 0.00 in0.0 mm
03:00 PM 59.9°F15.5°C 59.6°F15.3°C 99% Calm Calm -- 29.26 in990.9 mb - 0.00 in0.0 mm 0.00 in0.0 mm
04:00 PM 54.7°F12.6°C 54.4°F12.4°C 99% Calm Calm -- 29.25 in990.5 mb - 0.00 in0.0 mm 0.00 in0.0 mm
05:00 PM 53.6°F12.0°C 53.3°F11.8°C 99% Calm Calm -- 29.24 in990.2 mb - 0.00 in0.0 mm 0.00 in0.0 mm
06:00 PM 52.0°F11.1°C 51.7°F10.9°C 99% Calm Calm -- 29.25 in990.5 mb - 0.00 in0.0 mm 0.00 in0.0 mm
07:00 PM 48.4°F9.1°C 48.1°F8.9°C 99% Calm Calm -- 29.24 in990.2 mb - 0.00 in0.0 mm 0.00 in0.0 mm
08:00 PM 43.9°F6.6°C 43.6°F6.4°C 99% Calm Calm -- 29.25 in990.5 mb - 0.00 in0.0 mm 0.00 in0.0 mm
09:00 PM 41.7°F5.4°C 41.4°F5.2°C 99% Calm Calm -- 29.26 in990.9 mb - 0.00 in0.0 mm 0.00 in0.0 mm
10:00 PM 42.1°F5.6°C 34.4°F1.3°C 74% Calm Calm -- 29.26 in990.9 mb - 0.00 in0.0 mm 0.00 in0.0 mm
11:00 PM 42.8°F6.0°C 42.5°F5.8°C 99% Calm Calm -- 29.25 in990.5 mb - 0.00 in0.0 mm 0.00 in0.0 mm